OPKC/KHI METAR and TAF weather

Enter ICAO airport designator
Station Type Date Time Source
OPKC METAR 2019/07/17 13:30 UTC NOAA

OPKC 171330Z 22015KT 7000 SCT020 32/21 Q1000 NOSIG


Station Type Date Time Source
OPKC Decoded METAR 2019/07/17 13:30 UTC NOAA

Karachi Airport, Pakistan (OPKC) 24-54N 067-08E 22M
Jul 17, 2019 - 09:30 AM EDT / 2019.07.17 1330 UTC
Wind: from the SW (220 degrees) at 17 MPH (15 KT):0
Visibility: 4 mile(s):0
Sky conditions: partly cloudy
Temperature: 89 F (32 C)
Dew Point: 69 F (21 C)
Relative Humidity: 52%
Pressure (altimeter): 29.53 in. Hg (1000 hPa)
ob: OPKC 171330Z 22015KT 7000 SCT020 32/21 Q1000 NOSIG
cycle: 13

Station Type Date Time Source
OPKC TAF 2019/07/17 12:57 UTC NOAA

TAF OPKC 170930Z 1712/1818 23012G22KT 6000 SCT020
BECMG 1718/1720 26005G15KT 6000 BKN020
TEMPO 1800/1804 26005G15KT 4000 FU BKN020
FM180600 23010G20KT 6000 SCT020

Example: see airport list